Elkton, MN (55933)

1:38 AM CDT on April 02, 2015 (GMT -0500)
Austin Municipal | | Change Station
CLOSE
Current Station
Airport
Location: Austin,
Elevation: 1230 ft
Nearby Weather Stations
Active Advisory: Fire Weather Watch Active Notice: Public Information Statement

Elev 1230 ft 43.67 °N, 92.93 °W | Updated 2 minutes ago

Rain
Rain
55 °F
Feels Like 55 °F
N
5
Wind Variable Wind from WNW

Today
High -- | Low -- °F
--% Chance of Precip.
Yesterday
High -- | Low -- °F
Precip. -- in
6:50 AM 7:38 PM
Waxing Gibbous, 96% visible
Pressure 29.68 in
Visibility 7.0 miles
Clouds Scattered Clouds 400 ft
Mostly Cloudy 1000 ft
Overcast 2400 ft
Dew Point 54 °F
Humidity 94%
Rainfall 0.44 in
Snow Depth Not available.
UV 0 out of 12
Pollen 7.20 out of 12
Air Quality Not available.
Flu Activity Not available.
METAR KAUM 020636Z AUTO 29004KT 7SM RA SCT004 BKN010 OVC024 13/12 A2968 RMK AO2 P0014

More Conditions Fewer Conditions

Pressure 29.68 in
Visibility 7.0 miles
Clouds Scattered Clouds 400 ft
Mostly Cloudy 1000 ft
Overcast 2400 ft
Dew Point 54 °F
Humidity 94%
Rainfall 0.44 in
Snow Depth Not available.
UV 0 out of 12
Pollen 7.20 out of 12
Air Quality Not available.
Flu Activity Not available.
METAR KAUM 020636Z AUTO 29004KT 7SM RA SCT004 BKN010 OVC024 13/12 A2968 RMK AO2 P0014

More Conditions Fewer Conditions

10-Day Weather Forecast

Almanac

Astronomy

Apr. 02, 2015 Rise Set
Actual Time
Civil Twilight
Nautical Twilight
Astronomical Twilight
Moon
Length of Visible Light
Length of Day
Tomorrow will be .
, % of the Moon is Illuminated

Today's Extremes

State Highs State Lows

Community

WunderPhotos

Upload Photos

1,810,204 photos uploaded!

WunderBlogs® & News

Nearby

Air Quality

  Air Quality AQ Index Pollutant
Not available.

Snow Depth

Station Depth Elevation

Earthquake Activity

City Distance Mag. Time & Date
Minimum magnitude displayed is 2.5.

Coastal Water Temperatures

Place Temperature

Stations

Nearby Weather Stations

Station Location Temp. Windchill Dew Point Humidity Wind Precip. Elev Updated Type
                   
Fire Weather Watch
Statement as of 7:09 PM CDT on April 01, 2015

... Fire Weather Watch remains in effect from Thursday morning
through Thursday evening for strong winds and low humidity for
portions of southeast Minnesota...

* Fire Weather Watch from 10 am to 7 PM Thursday.

* Gusty west winds of 15 to 25 mph Thursday.

* Minimum relative humidities in the mid 20 percents.

* High temperatures 60 to 65.

* Under these conditions... fires could start easily and spread
quickly. Avoid outdoor burning.


Precautionary/preparedness actions...

A Fire Weather Watch means that critical fire weather conditions
are forecast to occur. Listen for later forecasts and possible
red flag warnings.